createdAt,value
2024-02-22T00:00:39.035Z,92333.00
2024-02-22T00:01:39.132Z,92330.00
2024-02-22T00:02:39.105Z,92328.00
2024-02-22T00:03:39.152Z,92327.00
2024-02-22T00:04:39.404Z,92323.00
2024-02-22T00:05:39.351Z,92319.00
2024-02-22T00:06:39.284Z,92315.00
2024-02-22T00:07:39.368Z,92315.00
2024-02-22T00:08:39.349Z,92312.00
2024-02-22T00:09:39.403Z,92307.00
2024-02-22T00:10:39.481Z,92307.00
2024-02-22T00:11:39.749Z,92308.00
2024-02-22T00:12:39.542Z,92303.00
2024-02-22T00:13:39.590Z,92303.00
2024-02-22T00:14:39.625Z,92302.00
2024-02-22T00:15:39.667Z,92301.00
2024-02-22T00:16:39.740Z,92302.00
2024-02-22T00:17:39.847Z,92304.00
2024-02-22T00:18:39.827Z,92303.00
2024-02-22T00:19:39.899Z,92304.00
2024-02-22T00:20:39.903Z,92301.00
2024-02-22T00:21:39.961Z,92302.00
2024-02-22T00:22:40.091Z,92301.00
2024-02-22T00:23:40.042Z,92299.00
2024-02-22T00:24:40.089Z,92294.00
2024-02-22T00:25:40.161Z,92294.00
2024-02-22T00:26:40.189Z,92292.00
2024-02-22T00:27:40.234Z,92292.00
2024-02-22T00:28:40.297Z,92291.00
2024-02-22T00:29:40.341Z,92290.00
2024-02-22T00:30:40.387Z,92287.00
2024-02-22T00:31:40.461Z,92284.00
2024-02-22T00:32:40.473Z,92284.00
2024-02-22T00:33:40.641Z,92283.00
2024-02-22T00:34:41.494Z,92281.00
2024-02-22T00:35:40.653Z,92279.00
2024-02-22T00:36:40.678Z,92278.00
2024-02-22T00:37:40.738Z,92276.00
2024-02-22T00:38:40.792Z,92274.00
2024-02-22T00:39:40.851Z,92273.00
2024-02-22T00:40:40.921Z,92274.00
2024-02-22T00:41:40.919Z,92269.00
2024-02-22T00:42:40.969Z,92270.00
2024-02-22T00:43:41.099Z,92269.00
2024-02-22T00:44:41.080Z,92268.00
2024-02-22T00:45:41.125Z,92265.00
2024-02-22T00:46:41.180Z,92265.00
2024-02-22T00:47:41.281Z,92262.00
2024-02-22T00:48:41.373Z,92258.00
2024-02-22T00:49:41.448Z,92254.00
2024-02-22T00:50:41.467Z,92253.00
2024-02-22T00:51:41.423Z,92254.00
2024-02-22T00:52:41.504Z,92254.00
2024-02-22T00:53:41.528Z,92249.00
2024-02-22T00:54:41.580Z,92248.00
2024-02-22T00:55:41.633Z,92246.00
2024-02-22T00:56:41.676Z,92244.00
2024-02-22T00:57:41.722Z,92240.00
2024-02-22T00:58:41.826Z,92236.00
2024-02-22T00:59:41.823Z,92236.00
2024-02-22T01:00:42.851Z,92235.00
2024-02-22T01:01:41.962Z,92230.00
2024-02-22T01:02:41.973Z,92229.00
2024-02-22T01:03:42.056Z,92228.00
2024-02-22T01:04:42.112Z,92228.00
2024-02-22T01:05:42.224Z,92228.00
2024-02-22T01:06:42.190Z,92227.00
2024-02-22T01:07:42.276Z,92227.00
2024-02-22T01:08:42.283Z,92227.00
2024-02-22T01:09:42.344Z,92229.00
2024-02-22T01:10:42.483Z,92227.00
2024-02-22T01:11:42.540Z,92223.00
2024-02-22T01:12:42.489Z,92225.00
2024-02-22T01:13:42.553Z,92221.00
2024-02-22T01:14:42.567Z,92221.00
2024-02-22T01:15:42.625Z,92221.00
2024-02-22T01:16:42.741Z,92219.00
2024-02-22T01:17:42.742Z,92219.00
2024-02-22T01:18:42.798Z,92215.00
2024-02-22T01:19:42.833Z,92213.00
2024-02-22T01:20:42.894Z,92213.00
2024-02-22T01:21:42.953Z,92210.00
2024-02-22T01:22:43.018Z,92207.00
2024-02-22T01:23:43.031Z,92207.00
2024-02-22T01:24:43.084Z,92203.00
2024-02-22T01:25:43.160Z,92202.00
2024-02-22T01:26:43.195Z,92201.00
2024-02-22T01:27:43.249Z,92199.00
2024-02-22T01:28:43.317Z,92197.00
2024-02-22T01:29:43.347Z,92197.00
2024-02-22T01:30:43.405Z,92195.00
2024-02-22T01:31:43.484Z,92195.00
2024-02-22T01:32:43.533Z,92193.00
2024-02-22T01:33:43.621Z,92193.00
2024-02-22T01:34:43.665Z,92193.00
2024-02-22T01:35:43.674Z,92187.00
2024-02-22T01:36:43.742Z,92189.00
2024-02-22T01:37:43.857Z,92184.00
2024-02-22T01:38:43.826Z,92184.00
2024-02-22T01:39:43.897Z,92182.00
2024-02-22T01:40:43.945Z,92179.00
2024-02-22T01:41:43.994Z,92180.00
2024-02-22T01:42:44.057Z,92179.00
2024-02-22T01:43:44.129Z,92180.00
2024-02-22T01:44:44.141Z,92179.00
2024-02-22T01:45:44.193Z,92176.00
2024-02-22T01:46:44.304Z,92174.00
2024-02-22T01:47:44.400Z,92174.00
2024-02-22T01:48:44.456Z,92171.00
2024-02-22T01:49:44.525Z,92169.00
2024-02-22T01:50:44.481Z,92169.00
2024-02-22T01:51:44.538Z,92167.00
2024-02-22T01:52:44.609Z,92165.00
2024-02-22T01:53:44.659Z,92160.00
2024-02-22T01:54:44.730Z,92158.00
2024-02-22T01:55:44.861Z,92155.00
2024-02-22T01:56:44.823Z,92152.00
2024-02-22T01:57:44.872Z,92151.00
2024-02-22T01:58:44.950Z,92150.00
2024-02-22T01:59:44.986Z,92148.00
2024-02-22T02:00:45.091Z,92149.00
2024-02-22T02:01:45.108Z,92149.00
2024-02-22T02:02:45.160Z,92150.00
2024-02-22T02:03:45.219Z,92150.00
2024-02-22T02:04:45.293Z,92151.00
2024-02-22T02:05:45.318Z,92148.00
2024-02-22T02:06:45.440Z,92143.00
2024-02-22T02:07:45.491Z,92142.00
2024-02-22T02:08:45.469Z,92144.00
2024-02-22T02:09:45.521Z,92144.00
2024-02-22T02:10:45.667Z,92142.00
2024-02-22T02:11:46.010Z,92144.00
2024-02-22T02:12:45.692Z,92143.00
2024-02-22T02:13:45.800Z,92144.00
2024-02-22T02:14:45.805Z,92143.00
2024-02-22T02:15:45.886Z,92143.00
2024-02-22T02:16:45.928Z,92141.00
2024-02-22T02:17:45.981Z,92140.00
2024-02-22T02:18:46.047Z,92138.00
2024-02-22T02:19:46.116Z,92138.00
2024-02-22T02:20:46.126Z,92133.00
2024-02-22T02:21:46.195Z,92126.00
2024-02-22T02:22:46.258Z,92123.00
2024-02-22T02:23:46.304Z,92121.00
2024-02-22T02:24:46.350Z,92121.00
2024-02-22T02:25:46.477Z,92118.00
2024-02-22T02:26:46.512Z,92120.00
2024-02-22T02:27:46.509Z,92119.00
2024-02-22T02:28:46.597Z,92119.00
2024-02-22T02:29:46.634Z,92119.00
2024-02-22T02:30:46.694Z,92115.00
2024-02-22T02:31:46.781Z,92112.00
2024-02-22T02:32:46.878Z,92107.00
2024-02-22T02:33:46.892Z,92105.00
2024-02-22T02:34:46.950Z,92105.00
2024-02-22T02:35:46.963Z,92102.00
2024-02-22T02:36:47.042Z,92098.00
2024-02-22T02:37:47.161Z,92091.00
2024-02-22T02:38:47.124Z,92088.00
2024-02-22T02:39:47.191Z,92083.00
2024-02-22T02:40:47.250Z,92077.00
2024-02-22T02:41:47.293Z,92079.00
2024-02-22T02:42:47.334Z,92075.00
2024-02-22T02:43:47.414Z,92068.00
2024-02-22T02:44:47.437Z,92061.00
2024-02-22T02:45:47.498Z,92055.00
2024-02-22T02:46:47.623Z,92050.00
2024-02-22T02:47:47.635Z,92052.00
2024-02-22T02:48:47.682Z,92046.00
2024-02-22T02:49:47.726Z,92047.00
2024-02-22T02:50:47.773Z,92039.00
2024-02-22T02:51:47.902Z,92035.00
2024-02-22T02:52:47.902Z,92035.00
2024-02-22T02:53:47.945Z,92038.00
2024-02-22T02:54:48.001Z,92037.00
2024-02-22T02:55:48.076Z,92039.00
2024-02-22T02:56:48.131Z,92037.00
2024-02-22T02:57:48.175Z,92035.00
2024-02-22T02:58:48.225Z,92041.00
2024-02-22T02:59:48.267Z,92043.00
2024-02-22T03:00:48.382Z,92039.00
2024-02-22T03:01:48.438Z,92036.00
2024-02-22T03:02:48.441Z,92040.00
2024-02-22T03:03:48.516Z,92042.00
2024-02-22T03:04:48.593Z,92044.00
2024-02-22T03:05:48.767Z,92045.00
2024-02-22T03:06:48.686Z,92045.00
2024-02-22T03:07:48.716Z,92044.00
2024-02-22T03:08:48.756Z,92042.00
2024-02-22T03:09:48.804Z,92036.00
2024-02-22T03:10:48.999Z,92035.00
2024-02-22T03:11:49.037Z,92032.00
2024-02-22T03:12:48.960Z,92033.00
2024-02-22T03:13:49.039Z,92029.00
2024-02-22T03:14:49.073Z,92024.00
2024-02-22T03:15:49.137Z,92017.00
2024-02-22T03:16:49.212Z,92016.00
2024-02-22T03:17:49.284Z,92012.00
2024-02-22T03:18:49.358Z,92010.00
2024-02-22T03:19:49.395Z,92007.00
2024-02-22T03:20:49.423Z,92008.00
2024-02-22T03:21:49.484Z,92008.00
2024-02-22T03:22:49.548Z,92001.00
2024-02-22T03:23:49.613Z,92002.00
2024-02-22T03:24:49.660Z,92001.00
2024-02-22T03:25:49.757Z,91992.00
2024-02-22T03:26:49.789Z,91992.00
2024-02-22T03:27:49.848Z,91988.00
2024-02-22T03:28:49.928Z,91984.00
2024-02-22T03:29:49.959Z,91978.00
2024-02-22T03:30:50.024Z,91977.00
2024-02-22T03:31:50.235Z,91969.00
2024-02-22T03:32:50.160Z,91964.00
2024-02-22T03:33:50.225Z,91964.00
2024-02-22T03:34:50.258Z,91958.00
2024-02-22T03:35:50.332Z,91957.00
2024-02-22T03:36:50.380Z,91959.00
2024-02-22T03:37:50.469Z,91958.00
2024-02-22T03:38:50.514Z,91957.00
2024-02-22T03:39:50.570Z,91955.00
2024-02-22T03:40:50.716Z,91958.00
2024-02-22T03:41:50.685Z,91956.00
2024-02-22T03:42:50.748Z,91950.00
2024-02-22T03:43:50.828Z,91948.00
2024-02-22T03:44:50.854Z,91947.00
2024-02-22T03:45:50.921Z,91945.00
2024-02-22T03:46:51.061Z,91947.00
2024-02-22T03:47:51.061Z,91945.00
2024-02-22T03:48:51.123Z,91942.00
2024-02-22T03:49:51.178Z,91939.00
2024-02-22T03:50:51.221Z,91939.00
2024-02-22T03:51:51.272Z,91941.00
2024-02-22T03:52:51.455Z,91945.00
2024-02-22T03:53:51.432Z,91943.00
2024-02-22T03:54:51.476Z,91941.00
2024-02-22T03:55:51.581Z,91945.00
2024-02-22T03:56:51.582Z,91947.00
2024-02-22T03:57:51.716Z,91945.00
2024-02-22T03:58:51.725Z,91948.00
2024-02-22T03:59:51.759Z,91950.00
2024-02-22T04:00:51.870Z,91949.00
2024-02-22T04:01:51.930Z,91950.00
2024-02-22T04:02:51.932Z,91946.00
2024-02-22T04:03:51.970Z,91940.00
2024-02-22T04:04:52.204Z,91937.00
2024-02-22T04:05:52.112Z,91931.00
2024-02-22T04:06:52.121Z,91923.00
2024-02-22T04:07:52.129Z,91921.00
2024-02-22T04:08:52.147Z,91921.00
2024-02-22T04:09:52.210Z,91921.00
2024-02-22T04:10:52.296Z,91918.00
2024-02-22T04:11:52.335Z,91927.00
2024-02-22T04:12:52.283Z,91930.00
2024-02-22T04:13:59.474Z,91932.00
2024-02-22T04:14:59.437Z,91925.00
2024-02-22T04:15:59.461Z,91920.00
2024-02-22T04:16:59.494Z,91912.00
2024-02-22T04:17:59.500Z,91906.00
2024-02-22T04:18:59.495Z,91903.00
2024-02-22T04:19:59.488Z,91911.00
2024-02-22T04:20:59.446Z,91918.00
2024-02-22T04:21:59.461Z,91912.00
2024-02-22T04:22:59.471Z,91905.00
2024-02-22T04:23:59.506Z,91900.00
2024-02-22T04:24:59.456Z,91900.00
2024-02-22T04:25:59.474Z,91903.00
2024-02-22T04:26:59.471Z,91910.00
2024-02-22T04:27:59.467Z,91909.00
2024-02-22T04:28:59.539Z,91907.00
2024-02-22T04:29:59.467Z,91906.00
2024-02-22T04:31:06.636Z,91901.00
2024-02-22T04:32:06.677Z,91903.00
2024-02-22T04:33:06.653Z,91905.00
2024-02-22T04:34:06.640Z,91907.00
2024-02-22T04:35:06.753Z,91906.00
2024-02-22T04:36:06.647Z,91904.00
2024-02-22T04:37:06.632Z,91905.00
2024-02-22T04:38:06.727Z,91900.00
2024-02-22T04:39:06.638Z,91899.00
2024-02-22T04:40:06.636Z,91894.00
2024-02-22T04:41:06.704Z,91891.00
2024-02-22T04:42:06.635Z,91890.00
2024-02-22T04:43:06.635Z,91889.00
2024-02-22T04:44:06.850Z,91886.00
2024-02-22T04:45:06.635Z,91886.00
2024-02-22T04:46:06.647Z,91882.00
2024-02-22T04:47:06.695Z,91881.00
2024-02-22T04:48:06.751Z,91877.00
2024-02-22T04:49:06.902Z,91879.00
2024-02-22T04:50:06.741Z,91875.00
2024-02-22T04:51:06.655Z,91870.00
2024-02-22T04:52:06.646Z,91865.00
2024-02-22T04:53:06.684Z,91864.00
2024-02-22T04:54:06.657Z,91861.00
2024-02-22T04:55:06.659Z,91861.00
2024-02-22T04:56:06.744Z,91863.00
2024-02-22T04:57:06.670Z,91858.00
2024-02-22T04:58:06.664Z,91856.00
2024-02-22T04:59:06.688Z,91854.00
2024-02-22T05:00:06.794Z,91850.00
2024-02-22T05:01:06.702Z,91849.00
2024-02-22T05:02:06.804Z,91844.00
2024-02-22T05:03:06.674Z,91841.00
2024-02-22T05:04:06.784Z,91839.00
2024-02-22T05:05:06.740Z,91835.00
2024-02-22T05:06:06.747Z,91834.00
2024-02-22T05:07:06.685Z,91832.00
2024-02-22T05:08:06.770Z,91833.00
2024-02-22T05:09:06.682Z,91833.00
2024-02-22T05:10:06.679Z,91833.00
2024-02-22T05:11:06.739Z,91829.00
2024-02-22T05:12:06.708Z,91831.00
2024-02-22T05:13:06.698Z,91834.00
2024-02-22T05:14:06.714Z,91833.00
2024-02-22T05:15:06.705Z,91828.00
2024-02-22T05:16:06.690Z,91828.00
2024-02-22T05:17:06.794Z,91824.00
2024-02-22T05:18:06.860Z,91825.00
2024-02-22T05:19:06.738Z,91822.00
2024-02-22T05:20:06.765Z,91823.00
2024-02-22T05:21:06.839Z,91823.00
2024-02-22T05:22:07.675Z,91816.00
2024-02-22T05:23:06.943Z,91816.00
2024-02-22T05:24:06.991Z,91814.00
2024-02-22T05:25:07.063Z,91810.00
2024-02-22T05:26:07.172Z,91806.00
2024-02-22T05:27:07.192Z,91803.00
2024-02-22T05:28:07.263Z,91802.00
2024-02-22T05:29:07.344Z,91799.00
2024-02-22T05:30:07.371Z,91803.00
2024-02-22T05:31:07.455Z,91802.00
2024-02-22T05:32:07.542Z,91802.00
2024-02-22T05:33:07.648Z,91802.00
2024-02-22T05:34:07.679Z,91797.00
2024-02-22T05:35:07.741Z,91796.00
2024-02-22T05:36:07.774Z,91798.00
2024-02-22T05:37:07.843Z,91798.00
2024-02-22T05:38:07.969Z,91800.00
2024-02-22T05:39:07.976Z,91799.00
2024-02-22T05:40:08.060Z,91800.00
2024-02-22T05:41:08.148Z,91798.00
2024-02-22T05:42:08.187Z,91796.00
2024-02-22T05:43:08.324Z,91797.00
2024-02-22T05:44:08.369Z,91796.00
2024-02-22T05:45:08.381Z,91792.00
2024-02-22T05:46:08.479Z,91790.00
2024-02-22T05:47:08.554Z,91790.00
2024-02-22T05:48:08.626Z,91790.00
2024-02-22T05:49:08.710Z,91789.00
2024-02-22T05:50:08.730Z,91789.00
2024-02-22T05:51:08.748Z,91788.00
2024-02-22T05:52:08.825Z,91785.00
2024-02-22T05:53:08.919Z,91786.00
2024-02-22T05:54:08.923Z,91788.00
2024-02-22T05:55:09.001Z,91788.00
2024-02-22T05:56:09.078Z,91785.00
2024-02-22T05:57:11.571Z,91783.00
2024-02-22T05:58:09.116Z,91781.00
2024-02-22T05:59:09.145Z,91780.00
2024-02-22T06:00:09.126Z,91781.00
2024-02-22T06:01:09.207Z,91783.00
2024-02-22T06:02:09.203Z,91780.00
2024-02-22T06:03:10.655Z,91782.00
2024-02-22T06:04:09.143Z,91784.00
2024-02-22T06:05:09.255Z,91781.00
2024-02-22T06:06:09.126Z,91779.00
2024-02-22T06:07:09.184Z,91776.00
2024-02-22T06:08:09.210Z,91774.00
2024-02-22T06:09:09.278Z,91770.00
2024-02-22T06:10:09.137Z,91768.00
2024-02-22T06:11:09.216Z,91769.00
2024-02-22T06:12:09.698Z,91767.00
2024-02-22T06:13:09.167Z,91767.00
2024-02-22T06:14:09.281Z,91760.00
2024-02-22T06:15:09.298Z,91757.00
2024-02-22T06:16:09.362Z,91754.00
2024-02-22T06:17:09.479Z,91753.00
2024-02-22T06:18:09.665Z,91750.00
2024-02-22T06:19:09.630Z,91757.00
2024-02-22T06:20:09.634Z,91753.00
2024-02-22T06:21:09.681Z,91750.00
2024-02-22T06:22:09.725Z,91748.00
2024-02-22T06:23:09.806Z,91748.00
2024-02-22T06:24:09.790Z,91745.00
2024-02-22T06:25:09.821Z,91747.00
2024-02-22T06:26:09.913Z,91745.00
2024-02-22T06:27:09.942Z,91747.00
2024-02-22T06:28:09.997Z,91743.00
2024-02-22T06:29:10.065Z,91742.00
2024-02-22T06:30:10.086Z,91741.00
2024-02-22T06:31:10.104Z,91739.00
2024-02-22T06:32:10.157Z,91740.00
2024-02-22T06:33:10.258Z,91741.00
2024-02-22T06:34:10.286Z,91744.00
2024-02-22T06:35:10.361Z,91744.00
2024-02-22T06:36:10.316Z,91742.00
2024-02-22T06:37:10.400Z,91743.00
2024-02-22T06:38:10.526Z,91745.00
2024-02-22T06:39:10.528Z,91748.00
2024-02-22T06:40:10.605Z,91744.00
2024-02-22T06:41:10.740Z,91742.00
2024-02-22T06:42:10.760Z,91741.00
2024-02-22T06:43:10.793Z,91743.00
2024-02-22T06:44:10.907Z,91746.00
2024-02-22T06:45:10.946Z,91746.00
2024-02-22T06:46:11.017Z,91746.00
2024-02-22T06:47:11.094Z,91746.00
2024-02-22T06:48:11.281Z,91746.00
2024-02-22T06:49:11.371Z,91746.00
2024-02-22T06:50:11.438Z,91746.00
2024-02-22T06:51:12.307Z,91747.00
2024-02-22T06:52:11.419Z,91748.00
2024-02-22T06:53:11.479Z,91748.00
2024-02-22T06:54:11.516Z,91747.00
2024-02-22T06:55:11.602Z,91743.00
2024-02-22T06:56:11.712Z,91741.00
2024-02-22T06:57:11.731Z,91735.00
2024-02-22T06:58:11.871Z,91737.00
2024-02-22T06:59:11.973Z,91733.00
2024-02-22T07:00:11.945Z,91731.00
2024-02-22T07:01:12.012Z,91726.00
2024-02-22T07:02:12.108Z,91727.00
2024-02-22T07:03:12.108Z,91726.00
2024-02-22T07:04:12.196Z,91731.00
2024-02-22T07:05:12.302Z,91731.00
2024-02-22T07:06:12.319Z,91732.00
2024-02-22T07:07:12.443Z,91730.00
2024-02-22T07:08:12.514Z,91730.00
2024-02-22T07:09:12.496Z,91727.00
2024-02-22T07:10:12.700Z,91721.00
2024-02-22T07:11:12.747Z,91718.00
2024-02-22T07:12:12.828Z,91722.00
2024-02-22T07:13:12.771Z,91721.00
2024-02-22T07:14:12.869Z,91719.00
2024-02-22T07:15:12.892Z,91716.00
2024-02-22T07:16:12.974Z,91716.00
2024-02-22T07:17:13.117Z,91714.00
2024-02-22T07:18:13.262Z,91711.00
2024-02-22T07:19:13.330Z,91707.00
2024-02-22T07:20:13.291Z,91707.00
2024-02-22T07:21:13.305Z,91707.00
2024-02-22T07:22:13.379Z,91706.00
2024-02-22T07:23:13.493Z,91699.00
2024-02-22T07:24:13.508Z,91700.00
2024-02-22T07:25:13.573Z,91699.00
2024-02-22T07:26:13.676Z,91701.00
2024-02-22T07:27:14.648Z,91699.00
2024-02-22T07:28:13.671Z,91697.00
2024-02-22T07:29:17.486Z,91697.00
2024-02-22T07:30:13.755Z,91696.00
2024-02-22T07:31:13.662Z,91696.00
2024-02-22T07:32:13.723Z,91701.00
2024-02-22T07:33:13.762Z,91706.00
2024-02-22T07:34:13.740Z,91704.00
2024-02-22T07:35:13.686Z,91704.00
2024-02-22T07:36:13.671Z,91704.00
2024-02-22T07:37:13.740Z,91706.00
2024-02-22T07:38:13.717Z,91701.00
2024-02-22T07:39:13.661Z,91697.00
2024-02-22T07:40:13.691Z,91695.00
2024-02-22T07:41:13.803Z,91698.00
2024-02-22T07:42:13.680Z,91698.00
2024-02-22T07:43:13.666Z,91696.00
2024-02-22T07:44:14.324Z,91698.00
2024-02-22T07:45:13.675Z,91700.00
2024-02-22T07:46:13.670Z,91701.00
2024-02-22T07:47:13.778Z,91702.00
2024-02-22T07:48:13.892Z,91697.00
2024-02-22T07:49:13.851Z,91695.00
2024-02-22T07:50:13.900Z,91699.00
2024-02-22T07:51:13.917Z,91698.00
2024-02-22T07:52:13.972Z,91688.00
2024-02-22T07:53:14.199Z,91685.00
2024-02-22T07:54:14.101Z,91683.00
2024-02-22T07:55:14.146Z,91685.00
2024-02-22T07:56:14.251Z,91682.00
2024-02-22T07:57:14.259Z,91677.00
2024-02-22T07:58:14.314Z,91675.00
2024-02-22T07:59:16.388Z,91670.00
2024-02-22T08:00:14.431Z,91671.00
2024-02-22T08:01:14.526Z,91672.00
2024-02-22T08:02:14.573Z,91667.00
2024-02-22T08:03:14.579Z,91669.00
2024-02-22T08:04:14.982Z,91670.00
2024-02-22T08:05:14.801Z,91667.00
2024-02-22T08:06:14.889Z,91667.00
2024-02-22T08:07:14.874Z,91666.00
2024-02-22T08:08:15.010Z,91671.00
2024-02-22T08:09:14.986Z,91671.00
2024-02-22T08:10:15.017Z,91671.00
2024-02-22T08:11:15.178Z,91671.00
2024-02-22T08:12:15.160Z,91669.00
2024-02-22T08:13:15.808Z,91669.00
2024-02-22T08:14:15.250Z,91671.00
2024-02-22T08:15:15.218Z,91669.00
2024-02-22T08:16:15.248Z,91660.00
2024-02-22T08:17:15.310Z,91665.00
2024-02-22T08:18:15.374Z,91665.00
2024-02-22T08:19:16.322Z,91664.00
2024-02-22T08:20:15.477Z,91663.00
2024-02-22T08:21:15.497Z,91666.00
2024-02-22T08:22:15.552Z,91666.00
2024-02-22T08:23:15.781Z,91666.00
2024-02-22T08:24:15.650Z,91663.00
2024-02-22T08:25:15.757Z,91662.00
2024-02-22T08:26:15.911Z,91664.00
2024-02-22T08:27:15.730Z,91664.00
2024-02-22T08:28:15.740Z,91669.00
2024-02-22T08:29:15.967Z,91674.00
2024-02-22T08:30:15.772Z,91672.00
2024-02-22T08:31:16.792Z,91672.00
2024-02-22T08:32:15.845Z,91673.00
2024-02-22T08:33:15.981Z,91672.00
2024-02-22T08:34:16.116Z,91672.00
2024-02-22T08:35:15.941Z,91672.00
2024-02-22T08:36:15.910Z,91676.00
2024-02-22T08:37:15.929Z,91673.00
2024-02-22T08:38:16.063Z,91674.00
2024-02-22T08:39:16.005Z,91678.00
2024-02-22T08:40:26.440Z,91674.00
2024-02-22T08:41:17.770Z,91667.00
2024-02-22T08:42:16.063Z,91665.00
2024-02-22T08:43:16.071Z,91664.00
2024-02-22T08:44:16.132Z,91664.00
2024-02-22T08:45:16.064Z,91667.00
2024-02-22T08:46:16.108Z,91670.00
2024-02-22T08:47:16.108Z,91668.00
2024-02-22T08:48:16.185Z,91667.00
2024-02-22T08:49:16.171Z,91664.00
2024-02-22T08:50:16.167Z,91660.00
2024-02-22T08:51:16.072Z,91656.00
2024-02-22T08:52:17.937Z,91653.00
2024-02-22T08:53:16.149Z,91652.00
2024-02-22T08:54:16.108Z,91650.00
2024-02-22T08:55:16.149Z,91651.00
2024-02-22T08:56:16.247Z,91648.00
2024-02-22T08:57:16.219Z,91644.00
2024-02-22T08:58:16.266Z,91637.00
2024-02-22T08:59:16.304Z,91636.00
2024-02-22T09:00:16.320Z,91638.00
2024-02-22T09:01:16.407Z,91640.00
2024-02-22T09:02:16.493Z,91642.00
2024-02-22T09:03:16.374Z,91642.00
2024-02-22T09:04:16.529Z,91638.00
2024-02-22T09:05:16.524Z,91634.00
2024-02-22T09:06:16.753Z,91630.00
2024-02-22T09:07:16.690Z,91628.00
2024-02-22T09:08:16.748Z,91632.00
2024-02-22T09:09:16.751Z,91633.00
2024-02-22T09:10:16.809Z,91630.00
2024-02-22T09:11:16.914Z,91631.00
2024-02-22T09:12:16.926Z,91633.00
2024-02-22T09:13:16.951Z,91637.00
2024-02-22T09:14:17.119Z,91635.00
2024-02-22T09:15:17.053Z,91634.00
2024-02-22T09:16:17.050Z,91635.00
2024-02-22T09:17:17.237Z,91634.00
2024-02-22T09:18:17.229Z,91629.00
2024-02-22T09:19:17.323Z,91630.00
2024-02-22T09:20:17.338Z,91630.00
2024-02-22T09:21:17.359Z,91627.00
2024-02-22T09:22:17.373Z,91629.00
2024-02-22T09:23:17.689Z,91631.00
2024-02-22T09:24:17.516Z,91624.00
2024-02-22T09:25:17.568Z,91623.00
2024-02-22T09:26:17.627Z,91623.00
2024-02-22T09:27:17.647Z,91621.00
2024-02-22T09:28:17.662Z,91617.00
2024-02-22T09:29:17.817Z,91621.00
2024-02-22T09:30:17.749Z,91620.00
2024-02-22T09:31:17.811Z,91621.00
2024-02-22T09:32:17.935Z,91625.00
2024-02-22T09:33:17.874Z,91625.00
2024-02-22T09:34:17.955Z,91629.00
2024-02-22T09:35:17.970Z,91629.00
2024-02-22T09:36:17.936Z,91628.00
2024-02-22T09:37:17.986Z,91621.00
2024-02-22T09:38:18.029Z,91622.00
2024-02-22T09:39:17.995Z,91621.00
2024-02-22T09:40:18.085Z,91617.00
2024-02-22T09:41:18.206Z,91618.00
2024-02-22T09:42:18.210Z,91621.00
2024-02-22T09:43:18.265Z,91621.00
2024-02-22T09:44:18.425Z,91618.00
2024-02-22T09:45:18.377Z,91613.00
2024-02-22T09:46:18.509Z,91611.00
2024-02-22T09:47:19.422Z,91608.00
2024-02-22T09:48:18.542Z,91600.00
2024-02-22T09:49:18.532Z,91601.00
2024-02-22T09:50:18.582Z,91597.00
2024-02-22T09:51:18.561Z,91592.00
2024-02-22T09:52:18.656Z,91588.00
2024-02-22T09:53:18.791Z,91588.00
2024-02-22T09:54:18.730Z,91588.00
2024-02-22T09:55:18.704Z,91587.00
2024-02-22T09:56:18.787Z,91590.00
2024-02-22T09:57:21.368Z,91592.00
2024-02-22T09:58:18.980Z,91590.00
2024-02-22T09:59:19.095Z,91587.00
2024-02-22T10:00:20.152Z,91590.00
2024-02-22T10:01:19.018Z,91588.00
2024-02-22T10:02:19.340Z,91587.00
2024-02-22T10:03:19.115Z,91584.00
2024-02-22T10:04:19.120Z,91582.00
2024-02-22T10:05:20.009Z,91578.00
2024-02-22T10:06:19.229Z,91578.00
2024-02-22T10:07:19.225Z,91577.00
2024-02-22T10:08:19.317Z,91578.00
2024-02-22T10:09:19.265Z,91582.00
2024-02-22T10:10:19.276Z,91579.00
2024-02-22T10:11:19.453Z,91584.00
2024-02-22T10:12:19.910Z,91585.00
2024-02-22T10:13:20.495Z,91591.00
2024-02-22T10:14:19.487Z,91591.00
2024-02-22T10:15:19.502Z,91592.00
2024-02-22T10:16:19.532Z,91590.00
2024-02-22T10:17:19.767Z,91584.00
2024-02-22T10:18:19.658Z,91578.00
2024-02-22T10:19:19.724Z,91571.00
2024-02-22T10:20:19.833Z,91563.00
2024-02-22T10:21:19.669Z,91554.00
2024-02-22T10:22:19.704Z,91552.00
2024-02-22T10:23:19.818Z,91554.00
2024-02-22T10:24:20.730Z,91556.00
2024-02-22T10:25:19.745Z,91561.00
2024-02-22T10:26:19.790Z,91562.00
2024-02-22T10:27:19.749Z,91560.00
2024-02-22T10:28:20.293Z,91561.00
2024-02-22T10:29:19.905Z,91562.00
2024-02-22T10:30:19.817Z,91558.00
2024-02-22T10:31:19.755Z,91558.00
2024-02-22T10:32:19.844Z,91557.00
2024-02-22T10:33:19.973Z,91556.00
2024-02-22T10:34:19.878Z,91553.00
2024-02-22T10:35:19.862Z,91548.00
2024-02-22T10:36:19.873Z,91543.00
2024-02-22T10:37:19.906Z,91537.00
2024-02-22T10:38:19.976Z,91530.00
2024-02-22T10:39:19.983Z,91522.00
2024-02-22T10:40:20.010Z,91523.00
2024-02-22T10:41:20.152Z,91525.00
2024-02-22T10:42:20.069Z,91520.00
2024-02-22T10:43:20.098Z,91515.00
2024-02-22T10:44:20.208Z,91508.00
2024-02-22T10:45:20.168Z,91505.00
2024-02-22T10:46:20.185Z,91500.00
2024-02-22T10:47:20.305Z,91500.00
2024-02-22T10:48:20.278Z,91497.00
2024-02-22T10:49:20.318Z,91498.00
2024-02-22T10:50:20.453Z,91497.00
2024-02-22T10:51:20.345Z,91496.00
2024-02-22T10:52:20.388Z,91495.00
2024-02-22T10:53:20.412Z,91492.00
2024-02-22T10:54:20.429Z,91485.00
2024-02-22T10:55:20.448Z,91481.00
2024-02-22T10:56:20.536Z,91480.00
2024-02-22T10:57:20.513Z,91478.00
2024-02-22T10:58:20.552Z,91472.00
2024-02-22T10:59:20.606Z,91467.00
2024-02-22T11:00:20.615Z,91464.00
2024-02-22T11:01:20.742Z,91465.00
2024-02-22T11:02:20.718Z,91463.00
2024-02-22T11:03:20.684Z,91457.00
2024-02-22T11:04:20.734Z,91448.00
2024-02-22T11:05:20.777Z,91440.00
2024-02-22T11:06:20.826Z,91428.00
2024-02-22T11:07:20.826Z,91418.00
2024-02-22T11:08:20.867Z,91411.00
2024-02-22T11:09:20.851Z,91406.00
2024-02-22T11:10:20.974Z,91410.00
2024-02-22T11:11:20.958Z,91412.00
2024-02-22T11:12:20.962Z,91414.00
2024-02-22T11:13:20.990Z,91409.00
2024-02-22T11:14:21.076Z,91403.00
2024-02-22T11:15:21.081Z,91401.00
2024-02-22T11:16:21.887Z,91400.00
2024-02-22T11:17:21.303Z,91399.00
2024-02-22T11:18:21.248Z,91397.00
2024-02-22T11:19:21.281Z,91399.00
2024-02-22T11:20:21.409Z,91400.00
2024-02-22T11:21:21.403Z,91392.00
2024-02-22T11:22:22.659Z,91389.00
2024-02-22T11:23:21.537Z,91385.00
2024-02-22T11:24:21.642Z,91382.00
2024-02-22T11:25:21.698Z,91384.00
2024-02-22T11:26:21.808Z,91379.00
2024-02-22T11:27:21.784Z,91370.00
2024-02-22T11:28:21.823Z,91366.00
2024-02-22T11:29:21.930Z,91361.00
2024-02-22T11:30:21.971Z,91358.00
2024-02-22T11:31:22.019Z,91356.00
2024-02-22T11:32:22.893Z,91358.00
2024-02-22T11:33:22.221Z,91350.00
2024-02-22T11:34:22.325Z,91342.00
2024-02-22T11:35:22.510Z,91330.00
2024-02-22T11:36:22.372Z,91328.00
2024-02-22T11:37:22.453Z,91326.00
2024-02-22T11:38:22.463Z,91324.00
2024-02-22T11:39:22.436Z,91317.00
2024-02-22T11:40:22.451Z,91316.00
2024-02-22T11:41:22.540Z,91310.00
2024-02-22T11:42:22.467Z,91315.00
2024-02-22T11:43:22.494Z,91310.00
2024-02-22T11:44:22.581Z,91299.00
2024-02-22T11:45:22.619Z,91299.00